createdAt,value
2019-03-11T00:00:00.684Z,4.30
2019-03-11T00:02:26.620Z,4.20
2019-03-11T00:04:52.578Z,4.20
2019-03-11T00:07:19.017Z,4.10
2019-03-11T00:09:44.964Z,4.10
2019-03-11T00:12:10.898Z,4.10
2019-03-11T00:14:36.834Z,4.00
2019-03-11T00:17:03.079Z,4.00
2019-03-11T00:19:29.038Z,4.00
2019-03-11T00:21:54.978Z,4.00
2019-03-11T00:24:20.943Z,4.10
2019-03-11T00:26:46.871Z,4.10
2019-03-11T00:29:12.818Z,4.00
2019-03-11T00:31:38.862Z,4.00
2019-03-11T00:34:04.996Z,4.00
2019-03-11T00:36:31.023Z,4.00
2019-03-11T00:38:56.980Z,4.00
2019-03-11T00:41:22.935Z,4.00
2019-03-11T00:43:48.880Z,3.90
2019-03-11T00:46:14.839Z,3.90
2019-03-11T00:48:40.795Z,3.90
2019-03-11T00:51:06.736Z,3.90
2019-03-11T00:53:32.671Z,3.90
2019-03-11T00:55:58.621Z,3.80
2019-03-11T00:58:24.556Z,3.80
2019-03-11T01:00:50.616Z,3.70
2019-03-11T01:03:16.546Z,3.80
2019-03-11T01:05:42.491Z,3.80
2019-03-11T01:08:08.422Z,3.80
2019-03-11T01:10:34.391Z,3.70
2019-03-11T01:13:00.414Z,3.80
2019-03-11T01:15:26.607Z,3.70
2019-03-11T01:17:52.586Z,3.70
2019-03-11T01:20:18.750Z,3.70
2019-03-11T01:22:44.669Z,3.80
2019-03-11T01:25:11.323Z,3.60
2019-03-11T01:27:37.462Z,3.70
2019-03-11T01:30:04.823Z,3.70
2019-03-11T01:32:30.757Z,3.70
2019-03-11T01:34:56.704Z,3.70
2019-03-11T01:37:22.638Z,3.60
2019-03-11T01:39:48.610Z,3.70
2019-03-11T01:42:14.551Z,3.60
2019-03-11T01:44:40.503Z,3.60
2019-03-11T01:47:06.543Z,3.70
2019-03-11T01:49:32.481Z,3.60
2019-03-11T01:51:58.511Z,3.70
2019-03-11T01:54:24.454Z,3.70
2019-03-11T01:56:50.420Z,3.70
2019-03-11T01:59:16.360Z,3.70
2019-03-11T02:01:42.306Z,3.80
2019-03-11T02:04:28.115Z,5.00
2019-03-11T02:06:54.075Z,2.80
2019-03-11T02:09:20.217Z,3.70
2019-03-11T02:11:46.150Z,3.70
2019-03-11T02:14:12.103Z,3.70
2019-03-11T02:16:38.151Z,3.70
2019-03-11T02:19:04.090Z,3.70
2019-03-11T02:21:30.077Z,3.70
2019-03-11T02:23:56.023Z,3.70
2019-03-11T02:26:22.075Z,3.80
2019-03-11T02:28:48.055Z,3.70
2019-03-11T02:31:14.019Z,3.60
2019-03-11T02:33:39.946Z,3.60
2019-03-11T02:36:05.911Z,3.60
2019-03-11T02:38:31.891Z,3.60
2019-03-11T02:40:57.853Z,3.60
2019-03-11T02:43:23.789Z,3.60
2019-03-11T02:45:49.754Z,3.60
2019-03-11T02:48:15.781Z,3.60
2019-03-11T02:50:41.734Z,3.50
2019-03-11T02:53:07.659Z,3.50
2019-03-11T02:55:33.620Z,3.50
2019-03-11T02:57:59.566Z,3.40
2019-03-11T03:00:25.522Z,3.40
2019-03-11T03:03:10.194Z,3.40
2019-03-11T03:05:50.257Z,3.40
2019-03-11T03:08:16.212Z,3.40
2019-03-11T03:10:42.175Z,3.40
2019-03-11T03:13:08.106Z,3.40
2019-03-11T03:15:34.039Z,3.40
2019-03-11T03:17:59.995Z,3.40
2019-03-11T03:20:25.934Z,3.50
2019-03-11T03:22:51.979Z,3.50
2019-03-11T03:25:32.166Z,3.50
2019-03-11T03:27:45.865Z,3.40
2019-03-11T03:30:15.534Z,3.40
2019-03-11T03:32:41.682Z,3.40
2019-03-11T03:35:07.717Z,3.40
2019-03-11T03:37:33.766Z,3.40
2019-03-11T03:39:59.711Z,3.40
2019-03-11T03:42:25.663Z,3.30
2019-03-11T03:44:53.503Z,3.30
2019-03-11T03:47:19.428Z,3.20
2019-03-11T03:49:45.490Z,3.10
2019-03-11T03:52:31.494Z,3.00
2019-03-11T03:54:57.502Z,3.10
2019-03-11T03:57:23.490Z,3.10
2019-03-11T03:59:49.424Z,3.00
2019-03-11T04:02:15.393Z,3.00
2019-03-11T04:04:41.554Z,3.00
2019-03-11T04:07:07.798Z,3.00
2019-03-11T04:09:33.743Z,3.00
2019-03-11T04:11:59.703Z,3.00
2019-03-11T04:14:45.499Z,3.10
2019-03-11T04:17:11.454Z,3.10
2019-03-11T04:19:37.384Z,3.20
2019-03-11T04:22:03.386Z,3.20
2019-03-11T04:24:29.636Z,3.10
2019-03-11T04:26:55.594Z,3.10
2019-03-11T04:29:21.591Z,3.20
2019-03-11T04:31:47.584Z,3.20
2019-03-11T04:34:13.593Z,3.30
2019-03-11T04:36:39.526Z,3.50
2019-03-11T04:39:06.079Z,3.30
2019-03-11T04:41:32.066Z,3.30
2019-03-11T04:43:58.027Z,3.50
2019-03-11T04:46:23.962Z,3.50
2019-03-11T04:48:49.890Z,3.50
2019-03-11T04:51:15.829Z,3.60
2019-03-11T04:53:41.778Z,3.60
2019-03-11T04:56:07.714Z,3.50
2019-03-11T04:58:33.656Z,3.60
2019-03-11T05:00:59.591Z,3.60
2019-03-11T05:03:25.555Z,3.60
2019-03-11T05:05:51.482Z,3.60
2019-03-11T05:08:17.419Z,3.60
2019-03-11T05:10:43.361Z,3.60
2019-03-11T05:13:09.312Z,3.60
2019-03-11T05:15:35.263Z,3.70
2019-03-11T05:18:01.229Z,3.70
2019-03-11T05:20:27.161Z,3.70
2019-03-11T05:22:54.823Z,3.60
2019-03-11T05:25:20.971Z,3.60
2019-03-11T05:27:46.921Z,3.60
2019-03-11T05:30:14.756Z,3.60
2019-03-11T05:32:40.703Z,3.60
2019-03-11T05:35:06.839Z,3.60
2019-03-11T05:37:32.761Z,3.70
2019-03-11T05:39:58.715Z,3.70
2019-03-11T05:42:24.650Z,3.70
2019-03-11T05:44:50.606Z,3.70
2019-03-11T05:47:16.543Z,3.80
2019-03-11T05:49:42.491Z,3.80
2019-03-11T05:52:08.439Z,3.70
2019-03-11T05:54:34.415Z,3.80
2019-03-11T05:57:00.354Z,3.80
2019-03-11T05:59:26.305Z,3.80
2019-03-11T06:01:52.234Z,3.80
2019-03-11T06:04:18.187Z,3.90
2019-03-11T06:06:44.123Z,3.90
2019-03-11T06:09:10.179Z,4.00
2019-03-11T06:11:36.212Z,4.00
2019-03-11T06:14:02.224Z,4.00
2019-03-11T06:16:28.273Z,4.00
2019-03-11T06:18:54.269Z,4.10
2019-03-11T06:21:22.186Z,4.10
2019-03-11T06:23:48.143Z,4.20
2019-03-11T06:26:14.085Z,4.20
2019-03-11T06:28:40.106Z,4.30
2019-03-11T06:31:08.039Z,4.30
2019-03-11T06:33:33.967Z,4.30
2019-03-11T06:35:59.932Z,3.00
2019-03-11T06:38:25.879Z,4.40
2019-03-11T06:40:51.803Z,4.50
2019-03-11T06:43:17.749Z,5.90
2019-03-11T06:45:43.691Z,4.40
2019-03-11T06:48:09.647Z,4.40
2019-03-11T06:50:35.578Z,4.40
2019-03-11T06:53:01.520Z,4.40
2019-03-11T06:55:27.475Z,6.10
2019-03-11T06:57:53.423Z,4.30
2019-03-11T07:00:20.088Z,4.40
2019-03-11T07:02:46.013Z,4.40
2019-03-11T07:05:19.759Z,3.80
2019-03-11T07:07:39.798Z,4.50
2019-03-11T07:10:09.750Z,4.50
2019-03-11T07:12:35.726Z,4.60
2019-03-11T07:15:02.149Z,4.50
2019-03-11T07:17:28.099Z,4.60
2019-03-11T07:19:54.063Z,4.50
2019-03-11T07:22:20.002Z,4.50
2019-03-11T07:24:45.926Z,4.50
2019-03-11T07:27:11.876Z,4.40
2019-03-11T07:29:37.815Z,4.40
2019-03-11T07:32:03.776Z,4.30
2019-03-11T07:34:29.726Z,4.30
2019-03-11T07:37:15.628Z,4.30
2019-03-11T07:39:41.611Z,4.90
2019-03-11T07:42:07.552Z,3.40
2019-03-11T07:44:33.501Z,2.70
2019-03-11T07:46:59.428Z,1.90
2019-03-11T07:49:25.370Z,1.40
2019-03-11T07:51:51.314Z,1.00
2019-03-11T07:54:17.260Z,0.70
2019-03-11T07:56:43.214Z,0.50
2019-03-11T07:59:09.147Z,0.20
2019-03-11T08:01:35.077Z,0.10
2019-03-11T08:04:01.038Z,0.00
2019-03-11T08:06:26.973Z,0.00
2019-03-11T08:08:52.933Z,0.00
2019-03-11T08:11:18.875Z,0.00
2019-03-11T08:13:44.803Z,-0.10
2019-03-11T08:16:10.770Z,-0.10
2019-03-11T08:18:36.704Z,-0.10
2019-03-11T08:21:02.676Z,-0.10
2019-03-11T08:23:28.618Z,-0.10
2019-03-11T08:25:54.555Z,0.00
2019-03-11T08:28:20.504Z,-0.10
2019-03-11T08:30:46.429Z,-0.20
2019-03-11T08:33:12.395Z,-0.20
2019-03-11T08:35:38.317Z,-0.10
2019-03-11T08:38:05.265Z,-0.10
2019-03-11T08:40:31.526Z,-0.10
2019-03-11T08:42:57.454Z,-0.10
2019-03-11T08:45:23.414Z,-0.10
2019-03-11T08:47:49.351Z,-0.10
2019-03-11T08:50:15.484Z,-0.10
2019-03-11T08:52:41.434Z,0.00
2019-03-11T08:55:07.667Z,0.00
2019-03-11T08:57:33.628Z,-0.10
2019-03-11T08:59:59.566Z,-0.10
2019-03-11T09:02:25.500Z,-0.10
2019-03-11T09:04:51.455Z,0.00
2019-03-11T09:07:17.391Z,0.10
2019-03-11T09:09:43.328Z,0.00
2019-03-11T09:12:09.367Z,0.30
2019-03-11T09:14:35.305Z,0.60
2019-03-11T09:17:01.257Z,0.70
2019-03-11T09:19:27.254Z,0.70
2019-03-11T09:21:53.301Z,0.60
2019-03-11T09:24:41.047Z,0.60
2019-03-11T09:27:07.028Z,0.70
2019-03-11T09:29:32.977Z,0.90
2019-03-11T09:31:58.916Z,1.00
2019-03-11T09:34:24.895Z,1.00
2019-03-11T09:36:50.827Z,1.10
2019-03-11T09:39:16.791Z,1.00
2019-03-11T09:41:42.751Z,1.00
2019-03-11T09:44:08.704Z,1.00
2019-03-11T09:46:34.643Z,1.20
2019-03-11T09:49:00.682Z,1.30
2019-03-11T09:51:26.618Z,1.50
2019-03-11T09:53:52.599Z,1.40
2019-03-11T09:56:18.622Z,1.60
2019-03-11T09:58:44.565Z,1.70
2019-03-11T10:01:10.619Z,1.80
2019-03-11T10:03:36.655Z,1.90
2019-03-11T10:06:02.616Z,1.80
2019-03-11T10:08:28.540Z,1.90
2019-03-11T10:10:54.487Z,1.90
2019-03-11T10:13:20.449Z,1.90
2019-03-11T10:15:46.383Z,2.20
2019-03-11T10:18:12.441Z,2.20
2019-03-11T10:20:38.384Z,2.20
2019-03-11T10:23:04.321Z,2.20
2019-03-11T10:25:30.290Z,2.40
2019-03-11T10:27:56.219Z,2.50
2019-03-11T10:30:22.882Z,2.60
2019-03-11T10:32:48.920Z,2.60
2019-03-11T10:35:30.970Z,2.50
2019-03-11T10:37:43.712Z,2.40
2019-03-11T10:40:29.540Z,2.40
2019-03-11T10:42:55.515Z,2.20
2019-03-11T10:45:30.399Z,1.90
2019-03-11T10:47:49.411Z,1.90
2019-03-11T10:50:16.138Z,2.10
2019-03-11T10:52:42.071Z,2.00
2019-03-11T10:55:09.731Z,1.90
2019-03-11T10:57:35.683Z,1.90
2019-03-11T11:00:03.031Z,2.10
2019-03-11T11:02:28.975Z,1.90
2019-03-11T11:04:54.908Z,2.00
2019-03-11T11:07:20.854Z,2.40
2019-03-11T11:09:46.791Z,2.90
2019-03-11T11:12:12.856Z,3.40
2019-03-11T11:14:38.807Z,3.70
2019-03-11T11:17:04.844Z,3.80
2019-03-11T11:19:30.824Z,4.00
2019-03-11T11:21:56.774Z,4.10
2019-03-11T11:24:22.746Z,4.10
2019-03-11T11:26:48.670Z,3.70
2019-03-11T11:29:14.638Z,3.40
2019-03-11T11:31:40.668Z,3.50
2019-03-11T11:34:06.600Z,3.70
2019-03-11T11:36:32.552Z,3.60
2019-03-11T11:38:58.484Z,3.60
2019-03-11T11:41:24.441Z,3.50
2019-03-11T11:43:50.379Z,3.40
2019-03-11T11:46:16.307Z,3.30
2019-03-11T11:48:42.251Z,3.60
2019-03-11T11:51:08.179Z,3.70
2019-03-11T11:53:34.146Z,3.70
2019-03-11T11:56:00.078Z,4.00
2019-03-11T11:58:26.005Z,3.80
2019-03-11T12:00:51.965Z,3.90
2019-03-11T12:03:17.993Z,4.00
2019-03-11T12:05:43.942Z,4.20
2019-03-11T12:08:09.889Z,4.30
2019-03-11T12:10:35.863Z,4.50
2019-03-11T12:13:01.797Z,4.90
2019-03-11T12:15:27.746Z,4.90
2019-03-11T12:17:53.679Z,4.90
2019-03-11T12:20:23.290Z,4.90
2019-03-11T12:22:49.252Z,4.80
2019-03-11T12:25:15.483Z,4.60
2019-03-11T12:27:52.768Z,4.60
2019-03-11T12:30:11.329Z,5.00
2019-03-11T12:32:37.270Z,5.30
2019-03-11T12:35:03.528Z,5.40
2019-03-11T12:37:29.462Z,5.80
2019-03-11T12:39:55.416Z,5.60
2019-03-11T12:42:21.437Z,4.90
2019-03-11T12:44:47.718Z,4.80
2019-03-11T12:47:13.665Z,5.20
2019-03-11T12:49:39.595Z,5.10
2019-03-11T12:52:05.542Z,5.30
2019-03-11T12:54:31.507Z,5.80
2019-03-11T12:56:57.433Z,6.10
2019-03-11T12:59:23.395Z,6.60
2019-03-11T13:01:49.414Z,6.50
2019-03-11T13:04:15.366Z,6.00
2019-03-11T13:06:41.299Z,5.40
2019-03-11T13:09:07.537Z,5.40
2019-03-11T13:11:33.474Z,5.20
2019-03-11T13:13:59.437Z,5.00
2019-03-11T13:16:25.383Z,5.00
2019-03-11T13:18:51.322Z,5.50
2019-03-11T13:21:18.774Z,5.90
2019-03-11T13:23:44.713Z,5.90
2019-03-11T13:26:10.667Z,5.40
2019-03-11T13:28:36.611Z,5.30
2019-03-11T13:31:02.564Z,5.30
2019-03-11T13:33:28.510Z,5.60
2019-03-11T13:35:56.683Z,5.30
2019-03-11T13:38:23.088Z,5.20
2019-03-11T13:40:49.023Z,5.20
2019-03-11T13:43:14.978Z,5.00
2019-03-11T13:45:40.949Z,4.90
2019-03-11T13:48:06.907Z,5.10
2019-03-11T13:50:32.847Z,5.20
2019-03-11T13:52:58.803Z,5.30
2019-03-11T13:55:24.747Z,5.30
2019-03-11T13:57:50.675Z,5.30
2019-03-11T14:00:18.727Z,5.10
2019-03-11T14:02:44.658Z,5.00
2019-03-11T14:05:10.808Z,4.70
2019-03-11T14:07:36.900Z,4.30
2019-03-11T14:10:04.102Z,3.90
2019-03-11T14:12:30.043Z,3.70
2019-03-11T14:14:56.019Z,3.50
2019-03-11T14:17:21.946Z,3.40
2019-03-11T14:19:47.906Z,3.40
2019-03-11T14:22:13.855Z,3.50
2019-03-11T14:24:39.894Z,3.40
2019-03-11T14:27:05.834Z,3.10
2019-03-11T14:29:31.767Z,3.10
2019-03-11T14:31:57.703Z,3.20
2019-03-11T14:34:23.635Z,3.20
2019-03-11T14:36:49.583Z,3.60
2019-03-11T14:39:15.521Z,4.10
2019-03-11T14:41:41.466Z,4.20
2019-03-11T14:44:07.430Z,4.00
2019-03-11T14:46:33.456Z,3.90
2019-03-11T14:48:59.494Z,3.90
2019-03-11T14:51:25.455Z,4.00
2019-03-11T14:53:51.387Z,4.30
2019-03-11T14:56:17.318Z,4.20
2019-03-11T14:58:43.263Z,4.10
2019-03-11T15:01:09.204Z,3.80
2019-03-11T15:03:35.155Z,3.70
2019-03-11T15:06:01.111Z,3.70
2019-03-11T15:08:27.143Z,3.80
2019-03-11T15:10:53.083Z,3.70
2019-03-11T15:13:19.040Z,3.60
2019-03-11T15:15:44.983Z,3.50
2019-03-11T15:18:10.924Z,3.40
2019-03-11T15:20:36.900Z,3.20
2019-03-11T15:23:07.926Z,3.30
2019-03-11T15:25:31.269Z,3.10
2019-03-11T15:27:57.291Z,2.80
2019-03-11T15:30:25.009Z,2.70
2019-03-11T15:32:50.979Z,2.70
2019-03-11T15:35:17.230Z,2.60
2019-03-11T15:37:43.169Z,2.50
2019-03-11T15:40:10.236Z,2.30
2019-03-11T15:42:36.179Z,2.20
2019-03-11T15:45:02.240Z,2.10
2019-03-11T15:47:28.193Z,1.70
2019-03-11T15:49:54.119Z,1.60
2019-03-11T15:52:20.079Z,1.60
2019-03-11T15:54:46.027Z,1.70
2019-03-11T15:57:11.974Z,1.70
2019-03-11T15:59:37.915Z,1.80
2019-03-11T16:02:03.872Z,1.80
2019-03-11T16:04:29.804Z,1.70
2019-03-11T16:06:55.753Z,1.60
2019-03-11T16:09:21.706Z,1.70
2019-03-11T16:11:47.747Z,1.80
2019-03-11T16:14:13.687Z,1.80
2019-03-11T16:16:39.647Z,1.70
2019-03-11T16:19:05.588Z,1.70
2019-03-11T16:21:31.540Z,1.50
2019-03-11T16:23:57.493Z,1.50
2019-03-11T16:26:23.431Z,1.40
2019-03-11T16:28:49.396Z,1.40
2019-03-11T16:31:15.343Z,1.30
2019-03-11T16:33:41.282Z,1.30
2019-03-11T16:36:07.231Z,1.10
2019-03-11T16:38:33.302Z,0.90
2019-03-11T16:40:59.339Z,1.00
2019-03-11T16:43:25.291Z,1.00
2019-03-11T16:45:51.271Z,1.20
2019-03-11T16:48:17.200Z,1.10
2019-03-11T16:50:43.150Z,1.10
2019-03-11T16:53:09.095Z,1.10
2019-03-11T16:55:36.955Z,1.00
2019-03-11T16:58:03.109Z,1.10
2019-03-11T17:00:30.974Z,0.80
2019-03-11T17:02:56.899Z,0.70
2019-03-11T17:05:22.958Z,0.70
2019-03-11T17:07:48.895Z,0.80
2019-03-11T17:10:36.640Z,0.80
2019-03-11T17:13:02.881Z,0.80
2019-03-11T17:15:28.923Z,0.60
2019-03-11T17:17:54.880Z,0.50
2019-03-11T17:20:20.821Z,0.50
2019-03-11T17:22:46.814Z,0.40
2019-03-11T17:25:13.135Z,0.50
2019-03-11T17:27:39.702Z,0.40
2019-03-11T17:30:07.548Z,0.50
2019-03-11T17:32:33.529Z,0.50
2019-03-11T17:34:59.534Z,0.50
2019-03-11T17:37:25.464Z,0.40
2019-03-11T17:39:51.408Z,0.50
2019-03-11T17:42:17.339Z,0.50
2019-03-11T17:44:43.397Z,0.50
2019-03-11T17:47:09.336Z,0.40
2019-03-11T17:49:35.302Z,0.40
2019-03-11T17:52:01.327Z,0.40
2019-03-11T17:54:27.286Z,0.50
2019-03-11T17:56:53.219Z,0.50
2019-03-11T17:59:19.168Z,0.50
2019-03-11T18:01:45.117Z,0.40
2019-03-11T18:04:11.037Z,0.50
2019-03-11T18:06:36.978Z,0.40
2019-03-11T18:09:04.607Z,0.40
2019-03-11T18:11:30.545Z,0.40
2019-03-11T18:13:56.575Z,0.30
2019-03-11T18:16:22.530Z,0.30
2019-03-11T18:18:48.478Z,0.30
2019-03-11T18:21:14.475Z,0.20
2019-03-11T18:23:40.791Z,0.20
2019-03-11T18:26:06.746Z,0.30
2019-03-11T18:28:32.681Z,0.30
2019-03-11T18:30:58.670Z,0.20
2019-03-11T18:33:24.695Z,0.30
2019-03-11T18:35:50.650Z,0.30
2019-03-11T18:38:16.634Z,0.40
2019-03-11T18:40:42.655Z,0.40
2019-03-11T18:43:19.785Z,0.40
2019-03-11T18:45:36.536Z,0.40
2019-03-11T18:48:02.602Z,0.30
2019-03-11T18:50:28.618Z,0.40
2019-03-11T18:52:54.589Z,0.30
2019-03-11T18:55:20.901Z,0.30
2019-03-11T18:57:46.964Z,0.40
2019-03-11T19:00:16.685Z,0.40
2019-03-11T19:02:42.786Z,0.40
2019-03-11T19:05:10.248Z,0.40
2019-03-11T19:07:36.379Z,0.30
2019-03-11T19:10:03.073Z,0.30
2019-03-11T19:12:29.112Z,0.30
2019-03-11T19:14:55.145Z,0.40
2019-03-11T19:17:21.095Z,0.30
2019-03-11T19:19:47.155Z,0.30
2019-03-11T19:22:13.192Z,0.30
2019-03-11T19:24:39.303Z,0.40
2019-03-11T19:27:05.311Z,0.20
2019-03-11T19:29:31.290Z,0.30
2019-03-11T19:31:57.264Z,0.20
2019-03-11T19:34:26.081Z,0.30
2019-03-11T19:36:52.127Z,0.30
2019-03-11T19:39:18.697Z,0.30
2019-03-11T19:41:44.742Z,0.20
2019-03-11T19:44:10.780Z,0.20
2019-03-11T19:46:36.807Z,0.20
2019-03-11T19:49:02.866Z,0.10
2019-03-11T19:51:28.914Z,0.20
2019-03-11T19:53:54.975Z,0.10
2019-03-11T19:56:21.059Z,0.10
2019-03-11T19:58:47.088Z,0.00
2019-03-11T20:01:13.107Z,0.10
2019-03-11T20:03:39.173Z,0.10
2019-03-11T20:12:02.225Z,0.20
2019-03-11T20:14:28.405Z,0.10
2019-03-11T20:16:54.487Z,0.20
2019-03-11T20:19:22.426Z,0.20
2019-03-11T20:21:50.765Z,0.30
2019-03-11T20:24:16.242Z,0.30
2019-03-11T20:26:42.296Z,0.30
2019-03-11T20:29:08.325Z,0.30
2019-03-11T20:31:34.295Z,0.30
2019-03-11T20:34:00.303Z,0.30
2019-03-11T20:36:26.248Z,0.30
2019-03-11T20:38:52.278Z,0.30
2019-03-11T20:41:18.356Z,0.30
2019-03-11T20:43:44.346Z,0.40
2019-03-11T20:46:10.447Z,0.40
2019-03-11T20:48:36.493Z,-1.10
2019-03-11T20:51:02.575Z,0.50
2019-03-11T20:53:28.617Z,0.40
2019-03-11T20:55:54.756Z,0.40
2019-03-11T20:58:20.927Z,0.50
2019-03-11T21:00:47.168Z,0.40
2019-03-11T21:03:13.301Z,0.50
2019-03-11T21:05:40.281Z,0.50
2019-03-11T21:08:06.326Z,0.50
2019-03-11T21:10:32.512Z,0.60
2019-03-11T21:12:58.557Z,0.60
2019-03-11T21:15:24.640Z,0.60
2019-03-11T21:17:50.761Z,0.50
2019-03-11T21:20:16.766Z,0.50
2019-03-11T21:22:42.858Z,0.60
2019-03-11T21:25:10.800Z,0.60
2019-03-11T21:27:36.851Z,0.60
2019-03-11T21:30:04.756Z,0.60
2019-03-11T21:32:30.750Z,0.60
2019-03-11T21:34:56.906Z,0.60
2019-03-11T21:37:23.068Z,0.60
2019-03-11T21:39:49.083Z,0.70
2019-03-11T21:42:15.249Z,0.70
2019-03-11T21:44:41.415Z,0.60
2019-03-11T21:47:07.524Z,0.50
2019-03-11T21:49:33.556Z,0.70
2019-03-11T21:51:59.670Z,0.60
2019-03-11T21:54:25.802Z,0.60
2019-03-11T21:56:51.887Z,0.70
2019-03-11T21:59:18.034Z,0.80
2019-03-11T22:01:44.188Z,0.80
2019-03-11T22:04:10.128Z,0.80
2019-03-11T22:06:36.954Z,0.90
2019-03-11T22:09:04.462Z,0.90
2019-03-11T22:11:38.329Z,1.00
2019-03-11T22:14:04.444Z,1.20
2019-03-11T22:22:16.067Z,1.10
2019-03-11T22:24:42.019Z,1.10
2019-03-11T22:27:07.959Z,1.20
2019-03-11T22:29:35.214Z,1.30
2019-03-11T22:32:01.179Z,1.30
2019-03-11T22:34:27.430Z,1.40
2019-03-11T22:36:55.906Z,1.50
2019-03-11T22:39:21.319Z,1.50
2019-03-11T22:41:47.287Z,1.50
2019-03-11T22:44:13.267Z,1.50
2019-03-11T22:46:39.219Z,1.50
2019-03-11T22:49:05.146Z,1.60
2019-03-11T22:51:31.121Z,1.70
2019-03-11T22:53:57.050Z,1.60
2019-03-11T23:02:40.297Z,1.70
2019-03-11T23:05:00.398Z,0.40
2019-03-11T23:07:26.511Z,1.70
2019-03-11T23:09:52.445Z,1.70
2019-03-11T23:12:20.008Z,1.80
2019-03-11T23:14:45.983Z,1.80
2019-03-11T23:17:11.925Z,1.70
2019-03-11T23:19:37.854Z,1.70
2019-03-11T23:22:03.797Z,1.70
2019-03-11T23:24:31.298Z,1.70
2019-03-11T23:26:59.451Z,1.70
2019-03-11T23:29:25.450Z,1.70
2019-03-11T23:31:52.942Z,1.70
2019-03-11T23:34:23.310Z,1.70
2019-03-11T23:36:49.369Z,1.70
2019-03-11T23:39:15.327Z,1.70
2019-03-11T23:41:41.271Z,1.60
2019-03-11T23:44:07.256Z,1.60
2019-03-11T23:46:33.341Z,1.70
2019-03-11T23:49:01.481Z,1.70
2019-03-11T23:51:27.522Z,1.70
2019-03-11T23:53:53.463Z,1.70
2019-03-11T23:56:19.470Z,1.80
